»·PEaware :: N1BA F70-KSBA

N1BA :: F70-KSBA

FLIGHT INFORMATION

Flight Status: Arrived
Operator: Privately registered:
United States
More flights under this callsign
Pilot: Brian A. (9771)
Aircraft: BEECH AIRCRAFT BONANZA
(BE35)
More flights by this aircraft type
Origin: F70 French Valley
United States
Destination: KSBA Santa Barbara Mun
United States
More flights between these airports :: More routes between these airports
Route: +PDZ V186 DEANO V27 KWANG
File this flight plan on PilotEdge
Remarks:
Altitude:
(Current/Filed)
8,000ft
Speed:
(Current/Filed)
150kts
Departed: 13-Sep-20 10:37 AM
Arrived: 13-Sep-20 11:34 AM
Distance/Time
Traveled:
145nm/0:57
Distance/Time
To Go:
Arrived

Flight Plot

Page will automatically refresh every two minutes.

Flight plan parsing failed; only flown route is shown


Map Options




Map Legend


Flown Route
Filed Route
Departure Airport
Arrival Airport
Navaid (VOR, NDB)
Fix

Horizontal Profiles

Position Reports

Time Latitude Longitude Heading Altitude Ground
Speed
13-Sep-20 10:17 33.579310 -117.128410 104 1353ft 0kts
13-Sep-20 10:18 33.579310 -117.128410 104 1353ft 0kts
13-Sep-20 10:19 33.579310 -117.128410 104 1353ft 0kts
13-Sep-20 10:20 33.579310 -117.128410 104 1353ft 0kts
13-Sep-20 10:21 33.579310 -117.128410 104 1353ft 0kts
13-Sep-20 10:22 33.579310 -117.128410 104 1353ft 0kts
13-Sep-20 10:23 33.579310 -117.128410 104 1353ft 0kts
13-Sep-20 10:24 33.579310 -117.128410 104 1353ft 0kts
13-Sep-20 10:25 33.579310 -117.128410 104 1353ft 0kts
13-Sep-20 10:26 33.579310 -117.128410 104 1353ft 0kts
13-Sep-20 10:27 33.579310 -117.128410 104 1353ft 0kts
13-Sep-20 10:28 33.579310 -117.128409 104 1353ft 0kts
13-Sep-20 10:29 33.579310 -117.128409 104 1353ft 0kts
13-Sep-20 10:30 33.579378 -117.128199 34 1353ft 2kts
13-Sep-20 10:31 33.579424 -117.128166 30 1353ft 4kts
13-Sep-20 10:32 33.582261 -117.127004 78 1353ft 0kts
13-Sep-20 10:33 33.582262 -117.126998 78 1353ft 0kts
13-Sep-20 10:34 33.582263 -117.126994 78 1353ft 0kts
13-Sep-20 10:35 33.582268 -117.126627 108 1353ft 7kts
13-Sep-20 10:36 33.576316 -117.127897 190 1360ft 92kts
13-Sep-20 10:37 33.548211 -117.126124 172 2882ft 103kts
13-Sep-20 10:38 33.550528 -117.153268 309 4482ft 105kts
13-Sep-20 10:39 33.573491 -117.183417 316 5557ft 132kts
13-Sep-20 10:40 33.603327 -117.216760 321 5989ft 169kts
13-Sep-20 10:41 33.640749 -117.254064 321 5987ft 176kts
13-Sep-20 10:42 33.678227 -117.291672 321 5985ft 174kts
13-Sep-20 10:43 33.715562 -117.328469 321 5986ft 173kts
13-Sep-20 10:44 33.752689 -117.365247 321 5991ft 173kts
13-Sep-20 10:45 33.789727 -117.401962 321 5982ft 170kts
13-Sep-20 10:46 33.826073 -117.438064 321 5991ft 172kts
13-Sep-20 10:47 33.863130 -117.474847 321 5976ft 173kts
13-Sep-20 10:48 33.899974 -117.511527 321 5975ft 167kts
13-Sep-20 10:49 33.933720 -117.547539 272 6029ft 173kts
13-Sep-20 10:50 33.938008 -117.605060 287 5979ft 180kts
13-Sep-20 10:51 33.962501 -117.655905 304 5983ft 169kts
13-Sep-20 10:52 33.980240 -117.707447 289 5986ft 167kts
13-Sep-20 10:53 33.996756 -117.754885 293 5989ft 166kts
13-Sep-20 10:54 34.014630 -117.806471 293 5996ft 170kts
13-Sep-20 10:55 34.032920 -117.859159 293 5984ft 168kts
13-Sep-20 10:56 34.051086 -117.911511 293 5988ft 172kts
13-Sep-20 10:57 34.069553 -117.964794 293 6002ft 171kts
13-Sep-20 10:58 34.078826 -118.020828 279 6010ft 170kts
13-Sep-20 10:59 34.088458 -118.076819 293 6018ft 177kts
13-Sep-20 11:00 34.106939 -118.132028 292 6003ft 172kts
13-Sep-20 11:01 34.124466 -118.185910 292 6015ft 178kts
13-Sep-20 11:02 34.138862 -118.242668 271 6011ft 180kts
13-Sep-20 11:03 34.140303 -118.302398 271 6001ft 172kts
13-Sep-20 11:04 34.141864 -118.360365 271 6016ft 178kts
13-Sep-20 11:05 34.143324 -118.420002 271 6012ft 174kts
13-Sep-20 11:06 34.144897 -118.478275 272 6019ft 176kts
13-Sep-20 11:07 34.146574 -118.537153 271 6023ft 178kts
13-Sep-20 11:08 34.148411 -118.597468 271 6017ft 179kts
13-Sep-20 11:09 34.150394 -118.657461 271 6019ft 181kts
13-Sep-20 11:10 34.155889 -118.715492 277 6010ft 173kts
13-Sep-20 11:11 34.159655 -118.772880 274 6017ft 170kts
13-Sep-20 11:12 34.162526 -118.830313 273 6021ft 178kts
13-Sep-20 11:13 34.165546 -118.890103 273 6019ft 181kts
13-Sep-20 11:15 34.168734 -118.950331 274 6018ft 179kts
13-Sep-20 11:16 34.172104 -119.009283 274 6024ft 172kts
13-Sep-20 11:17 34.175484 -119.066447 274 6029ft 169kts
13-Sep-20 11:18 34.178852 -119.123946 273 6042ft 179kts
13-Sep-20 11:19 34.183400 -119.184113 283 6019ft 181kts
13-Sep-20 11:20 34.196582 -119.242046 291 6018ft 181kts
13-Sep-20 11:21 34.218623 -119.295909 297 6007ft 173kts
13-Sep-20 11:22 34.239091 -119.344510 297 5848ft 159kts
13-Sep-20 11:23 34.257960 -119.393574 283 5267ft 160kts
13-Sep-20 11:24 34.278181 -119.441808 298 4674ft 164kts
13-Sep-20 11:25 34.299783 -119.491195 296 4042ft 166kts
13-Sep-20 11:26 34.320934 -119.541322 296 4002ft 167kts
13-Sep-20 11:27 34.341167 -119.589281 296 3910ft 149kts
13-Sep-20 11:28 34.360121 -119.632832 296 3298ft 144kts
13-Sep-20 11:29 34.377533 -119.675906 290 2622ft 141kts
13-Sep-20 11:30 34.392844 -119.718444 297 2083ft 122kts
13-Sep-20 11:31 34.410509 -119.750139 306 1991ft 125kts
13-Sep-20 11:32 34.426966 -119.784884 274 1150ft 108kts
13-Sep-20 11:32 34.428184 -119.813219 266 567ft 95kts
13-Sep-20 11:34 34.427709 -119.842107 273 13ft 32kts
13-Sep-20 11:35 34.428007 -119.846226 340 13ft 0kts
13-Sep-20 11:35 34.429137 -119.844882 97 13ft 0kts

Navigation Log

Ident Type
Flight plan parsing failed, navigation log unavailable